createdAt,value
2022-12-01T00:00:19.761Z,13.38
2022-12-01T00:02:48.673Z,12.68
2022-12-01T00:05:17.295Z,13.85
2022-12-01T00:07:45.839Z,13.43
2022-12-01T00:10:28.906Z,13.43
2022-12-01T00:12:58.493Z,13.25
2022-12-01T00:15:30.590Z,12.40
2022-12-01T00:18:00.444Z,12.70
2022-12-01T00:20:30.380Z,11.55
2022-12-01T00:23:02.146Z,12.10
2022-12-01T00:25:33.336Z,12.52
2022-12-01T00:28:02.002Z,13.23
2022-12-01T00:30:34.608Z,12.68
2022-12-01T00:33:03.521Z,12.68
2022-12-01T00:35:32.055Z,12.57
2022-12-01T00:38:03.318Z,12.68
2022-12-01T00:40:36.560Z,12.13
2022-12-01T00:43:05.306Z,12.25
2022-12-01T00:45:37.836Z,11.65
2022-12-01T00:48:06.641Z,12.65
2022-12-01T00:50:35.852Z,12.48
2022-12-01T00:53:04.611Z,13.30
2022-12-01T00:55:33.112Z,13.00
2022-12-01T00:58:01.774Z,12.35
2022-12-01T01:00:30.433Z,13.00
2022-12-01T01:03:03.886Z,13.30
2022-12-01T01:05:32.366Z,12.98
2022-12-01T01:08:01.022Z,12.02
2022-12-01T01:10:30.009Z,12.18
2022-12-01T01:12:58.697Z,12.95
2022-12-01T01:15:39.983Z,12.20
2022-12-01T01:18:10.201Z,12.23
2022-12-01T01:20:39.429Z,12.32
2022-12-01T01:23:08.040Z,13.68
2022-12-01T01:25:36.605Z,13.07
2022-12-01T01:28:05.477Z,12.57
2022-12-01T01:30:36.146Z,13.10
2022-12-01T01:33:05.758Z,11.80
2022-12-01T01:35:35.919Z,12.52
2022-12-01T01:38:07.031Z,12.82
2022-12-01T01:40:36.101Z,12.45
2022-12-01T01:43:05.082Z,12.90
2022-12-01T01:45:33.948Z,12.82
2022-12-01T01:48:03.863Z,12.00
2022-12-01T01:50:32.476Z,12.13
2022-12-01T01:53:04.542Z,12.68
2022-12-01T01:55:34.175Z,13.73
2022-12-01T01:58:07.571Z,12.88
2022-12-01T02:00:39.100Z,14.77
2022-12-01T02:03:10.070Z,18.45
2022-12-01T02:05:40.450Z,13.77
2022-12-01T02:08:12.629Z,16.38
2022-12-01T02:10:50.612Z,21.63
2022-12-01T02:13:25.608Z,13.68
2022-12-01T02:15:58.636Z,15.35
2022-12-01T02:18:32.211Z,19.17
2022-12-01T02:21:15.625Z,18.25
2022-12-01T02:24:03.401Z,14.48
2022-12-01T02:26:41.622Z,14.10
2022-12-01T02:29:24.047Z,12.52
2022-12-01T02:31:57.548Z,11.60
2022-12-01T02:34:27.917Z,11.75
2022-12-01T02:36:59.587Z,12.40
2022-12-01T02:39:31.248Z,12.68
2022-12-01T02:42:03.790Z,12.57
2022-12-01T02:44:33.793Z,12.45
2022-12-01T02:47:06.990Z,13.35
2022-12-01T02:49:38.064Z,11.98
2022-12-01T02:52:08.295Z,12.20
2022-12-01T02:54:37.849Z,11.52
2022-12-01T02:57:09.354Z,13.00
2022-12-01T02:59:37.986Z,12.45
2022-12-01T03:02:12.037Z,12.55
2022-12-01T03:04:48.428Z,12.98
2022-12-01T03:07:27.112Z,12.63
2022-12-01T03:10:00.787Z,13.50
2022-12-01T03:12:32.161Z,12.10
2022-12-01T03:15:04.218Z,12.65
2022-12-01T03:17:38.738Z,12.00
2022-12-01T03:20:12.027Z,12.80
2022-12-01T03:22:44.212Z,13.18
2022-12-01T03:25:14.213Z,13.10
2022-12-01T03:28:00.545Z,11.77
2022-12-01T03:30:34.392Z,12.63
2022-12-01T03:33:09.774Z,12.55
2022-12-01T03:35:42.042Z,14.00
2022-12-01T03:38:13.311Z,12.55
2022-12-01T03:40:42.429Z,11.32
2022-12-01T03:43:12.964Z,12.18
2022-12-01T03:45:44.594Z,13.05
2022-12-01T03:48:14.782Z,11.38
2022-12-01T03:50:49.108Z,12.88
2022-12-01T03:53:20.308Z,13.40
2022-12-01T03:55:52.803Z,12.52
2022-12-01T03:58:22.803Z,12.05
2022-12-01T04:00:55.647Z,12.52
2022-12-01T04:03:27.124Z,13.07
2022-12-01T04:05:57.152Z,12.55
2022-12-01T04:08:25.903Z,12.98
2022-12-01T04:10:54.687Z,13.00
2022-12-01T04:13:23.382Z,12.38
2022-12-01T04:15:56.633Z,13.40
2022-12-01T04:18:27.423Z,13.40
2022-12-01T04:20:56.430Z,13.45
2022-12-01T04:23:42.117Z,13.10
2022-12-01T04:26:15.643Z,13.68
2022-12-01T04:31:13.319Z,12.38
2022-12-01T04:33:43.781Z,13.23
2022-12-01T04:36:12.576Z,13.20
2022-12-01T04:38:44.295Z,12.95
2022-12-01T04:41:13.125Z,12.38
2022-12-01T04:43:41.630Z,12.18
2022-12-01T04:46:10.782Z,12.77
2022-12-01T04:48:39.823Z,13.00
2022-12-01T04:51:10.410Z,12.30
2022-12-01T04:53:39.394Z,12.65
2022-12-01T04:56:08.571Z,14.20
2022-12-01T04:58:38.957Z,13.63
2022-12-01T05:01:08.444Z,13.38
2022-12-01T05:03:38.478Z,12.88
2022-12-01T05:06:08.154Z,13.02
2022-12-01T05:08:38.372Z,13.15
2022-12-01T05:11:07.892Z,13.20
2022-12-01T05:13:36.663Z,13.00
2022-12-01T05:16:09.065Z,12.45
2022-12-01T05:18:37.779Z,12.07
2022-12-01T05:21:06.159Z,11.93
2022-12-01T05:23:35.351Z,13.65
2022-12-01T05:26:06.771Z,11.98
2022-12-01T05:28:35.452Z,12.77
2022-12-01T05:31:04.549Z,12.52
2022-12-01T05:33:33.975Z,12.77
2022-12-01T05:36:02.550Z,12.45
2022-12-01T05:38:31.123Z,12.35
2022-12-01T05:40:59.880Z,12.82
2022-12-01T05:43:29.899Z,12.38
2022-12-01T05:45:59.102Z,12.23
2022-12-01T05:48:27.918Z,11.68
2022-12-01T05:50:56.656Z,12.68
2022-12-01T05:53:25.141Z,12.43
2022-12-01T05:55:54.819Z,11.07
2022-12-01T05:58:23.487Z,12.48
2022-12-01T06:00:53.565Z,13.15
2022-12-01T06:03:22.106Z,14.40
2022-12-01T06:05:51.063Z,17.33
2022-12-01T06:08:19.694Z,13.18
2022-12-01T06:10:49.099Z,12.63
2022-12-01T06:13:17.649Z,12.52
2022-12-01T06:15:46.201Z,11.98
2022-12-01T06:18:16.118Z,12.18
2022-12-01T06:20:44.624Z,13.70
2022-12-01T06:23:13.313Z,13.65
2022-12-01T06:25:41.901Z,15.85
2022-12-01T06:28:10.318Z,14.48
2022-12-01T06:30:38.815Z,13.27
2022-12-01T06:33:07.664Z,13.77
2022-12-01T06:35:38.010Z,14.80
2022-12-01T06:38:06.739Z,14.48
2022-12-01T06:40:35.425Z,14.35
2022-12-01T06:43:04.457Z,13.98
2022-12-01T06:45:33.139Z,13.40
2022-12-01T06:48:01.680Z,12.85
2022-12-01T06:50:30.225Z,12.98
2022-12-01T06:53:00.218Z,13.30
2022-12-01T06:55:31.487Z,13.00
2022-12-01T06:58:01.647Z,15.85
2022-12-01T07:00:30.272Z,13.13
2022-12-01T07:02:59.077Z,13.15
2022-12-01T07:05:33.187Z,12.55
2022-12-01T07:08:03.654Z,13.35
2022-12-01T07:10:32.519Z,14.43
2022-12-01T07:13:01.254Z,12.50
2022-12-01T07:15:30.188Z,13.88
2022-12-01T07:17:58.972Z,13.25
2022-12-01T07:20:27.742Z,12.65
2022-12-01T07:22:57.671Z,12.30
2022-12-01T07:25:27.819Z,13.43
2022-12-01T07:27:56.559Z,12.35
2022-12-01T07:30:28.463Z,13.80
2022-12-01T07:32:57.493Z,13.13
2022-12-01T07:35:26.257Z,13.30
2022-12-01T07:37:56.659Z,13.77
2022-12-01T07:40:25.835Z,13.25
2022-12-01T07:42:56.152Z,14.48
2022-12-01T07:45:25.063Z,14.80
2022-12-01T07:47:55.001Z,13.95
2022-12-01T07:50:23.760Z,13.82
2022-12-01T07:52:52.559Z,13.57
2022-12-01T07:55:21.480Z,13.10
2022-12-01T07:57:50.197Z,12.77
2022-12-01T08:00:20.838Z,12.10
2022-12-01T08:02:50.724Z,12.93
2022-12-01T08:05:19.495Z,12.20
2022-12-01T08:07:48.335Z,13.50
2022-12-01T08:10:17.195Z,12.30
2022-12-01T08:12:48.682Z,13.30
2022-12-01T08:15:17.552Z,13.50
2022-12-01T08:17:47.976Z,12.00
2022-12-01T08:20:22.274Z,12.43
2022-12-01T08:22:52.549Z,12.48
2022-12-01T08:25:21.507Z,12.40
2022-12-01T08:27:50.033Z,12.90
2022-12-01T08:30:18.973Z,12.98
2022-12-01T08:32:49.346Z,12.90
2022-12-01T08:35:17.839Z,13.18
2022-12-01T08:37:46.640Z,12.90
2022-12-01T08:40:15.540Z,14.82
2022-12-01T08:42:44.158Z,12.45
2022-12-01T08:45:13.469Z,12.75
2022-12-01T08:47:42.243Z,13.63
2022-12-01T08:50:13.104Z,12.70
2022-12-01T08:52:41.943Z,13.27
2022-12-01T08:55:11.320Z,12.88
2022-12-01T08:57:40.527Z,12.45
2022-12-01T09:00:10.485Z,13.68
2022-12-01T09:02:39.322Z,12.98
2022-12-01T09:05:08.518Z,14.48
2022-12-01T09:08:11.096Z,12.45
2022-12-01T09:10:39.881Z,13.68
2022-12-01T09:13:08.650Z,12.88
2022-12-01T09:15:37.439Z,13.23
2022-12-01T09:18:07.173Z,14.15
2022-12-01T09:20:35.926Z,12.82
2022-12-01T09:23:06.400Z,12.77
2022-12-01T09:25:35.803Z,12.05
2022-12-01T09:28:04.271Z,12.10
2022-12-01T09:30:32.988Z,12.93
2022-12-01T09:33:01.742Z,13.10
2022-12-01T09:35:30.839Z,11.43
2022-12-01T09:37:59.655Z,12.45
2022-12-01T09:40:34.453Z,12.45
2022-12-01T09:43:05.672Z,12.38
2022-12-01T09:45:39.722Z,12.32
2022-12-01T09:48:08.823Z,12.45
2022-12-01T09:50:39.517Z,11.90
2022-12-01T09:53:11.175Z,12.05
2022-12-01T09:55:44.315Z,12.07
2022-12-01T09:58:21.196Z,11.30
2022-12-01T10:00:55.377Z,11.50
2022-12-01T10:03:29.865Z,13.20
2022-12-01T10:08:54.508Z,11.82
2022-12-01T10:11:31.737Z,12.00
2022-12-01T10:14:03.853Z,11.88
2022-12-01T10:16:37.257Z,12.35
2022-12-01T10:19:22.086Z,12.13
2022-12-01T10:21:57.453Z,14.48
2022-12-01T10:24:31.931Z,11.85
2022-12-01T10:27:12.871Z,12.02
2022-12-01T10:29:47.950Z,12.32
2022-12-01T10:32:21.637Z,12.73
2022-12-01T10:34:51.900Z,11.80
2022-12-01T10:37:22.416Z,10.80
2022-12-01T10:40:00.350Z,11.15
2022-12-01T10:42:32.369Z,13.63
2022-12-01T10:45:02.893Z,11.45
2022-12-01T10:47:32.227Z,12.68
2022-12-01T10:50:01.344Z,10.80
2022-12-01T10:52:33.754Z,11.98
2022-12-01T10:55:04.729Z,12.35
2022-12-01T10:57:37.702Z,12.38
2022-12-01T11:00:36.241Z,12.63
2022-12-01T11:03:21.982Z,11.73
2022-12-01T11:05:54.843Z,12.00
2022-12-01T11:08:26.953Z,12.63
2022-12-01T11:11:01.426Z,12.20
2022-12-01T11:13:33.582Z,11.10
2022-12-01T11:16:06.312Z,11.07
2022-12-01T11:18:36.159Z,11.50
2022-12-01T11:21:12.141Z,11.18
2022-12-01T11:23:43.166Z,11.85
2022-12-01T11:29:10.756Z,11.45
2022-12-01T11:31:41.806Z,11.75
2022-12-01T11:34:20.774Z,12.93
2022-12-01T11:36:57.319Z,12.63
2022-12-01T11:39:30.345Z,12.30
2022-12-01T11:42:03.706Z,11.57
2022-12-01T11:44:55.294Z,12.02
2022-12-01T11:47:26.908Z,11.30
2022-12-01T11:50:00.402Z,12.20
2022-12-01T11:52:46.778Z,11.50
2022-12-01T11:55:25.188Z,13.05
2022-12-01T11:57:55.429Z,13.55
2022-12-01T12:00:32.958Z,11.95
2022-12-01T12:03:10.914Z,13.00
2022-12-01T12:05:49.238Z,12.50
2022-12-01T12:08:28.487Z,13.45
2022-12-01T12:11:04.091Z,12.43
2022-12-01T12:13:55.618Z,12.27
2022-12-01T12:16:32.032Z,14.13
2022-12-01T12:19:14.802Z,12.95
2022-12-01T12:21:57.556Z,12.45
2022-12-01T12:24:34.375Z,13.00
2022-12-01T12:27:28.358Z,12.45
2022-12-01T12:30:04.758Z,12.57
2022-12-01T12:32:52.368Z,13.20
2022-12-01T12:35:33.557Z,13.68
2022-12-01T12:38:09.431Z,13.40
2022-12-01T12:40:48.599Z,12.57
2022-12-01T12:43:32.931Z,12.18
2022-12-01T12:46:04.303Z,12.48
2022-12-01T12:49:19.601Z,12.82
2022-12-01T12:51:53.499Z,13.55
2022-12-01T12:54:27.539Z,12.18
2022-12-01T12:57:00.168Z,12.45
2022-12-01T12:59:34.469Z,13.15
2022-12-01T13:02:09.584Z,12.18
2022-12-01T13:04:51.566Z,12.73
2022-12-01T13:07:34.591Z,12.57
2022-12-01T13:10:09.292Z,14.85
2022-12-01T13:12:42.842Z,12.43
2022-12-01T13:15:21.756Z,12.68
2022-12-01T13:18:03.376Z,14.48
2022-12-01T13:20:35.546Z,14.30
2022-12-01T13:23:06.246Z,12.32
2022-12-01T13:25:41.438Z,13.10
2022-12-01T13:28:15.900Z,13.10
2022-12-01T13:31:02.751Z,12.40
2022-12-01T13:33:33.917Z,12.63
2022-12-01T13:39:35.391Z,12.88
2022-12-01T13:42:12.731Z,12.27
2022-12-01T13:45:06.812Z,12.43
2022-12-01T13:47:40.927Z,12.00
2022-12-01T13:50:42.930Z,12.82
2022-12-01T13:53:17.790Z,13.05
2022-12-01T13:56:05.754Z,13.68
2022-12-01T13:58:48.801Z,13.88
2022-12-01T14:01:35.470Z,12.25
2022-12-01T14:07:30.018Z,13.10
2022-12-01T14:10:44.087Z,12.80
2022-12-01T14:13:21.400Z,11.73
2022-12-01T14:16:04.898Z,11.85
2022-12-01T14:18:44.725Z,12.75
2022-12-01T14:21:24.791Z,11.77
2022-12-01T14:24:15.461Z,13.73
2022-12-01T14:26:53.819Z,12.07
2022-12-01T14:29:35.498Z,12.05
2022-12-01T14:32:22.698Z,12.25
2022-12-01T14:35:11.708Z,11.68
2022-12-01T14:37:44.775Z,12.70
2022-12-01T14:40:15.851Z,12.48
2022-12-01T14:43:08.019Z,11.43
2022-12-01T14:45:44.697Z,12.15
2022-12-01T14:48:16.602Z,11.70
2022-12-01T14:50:52.255Z,12.35
2022-12-01T14:53:24.820Z,13.05
2022-12-01T14:56:04.579Z,13.32
2022-12-01T14:58:40.986Z,11.38
2022-12-01T15:01:14.604Z,11.60
2022-12-01T15:03:49.629Z,14.23
2022-12-01T15:06:19.921Z,11.90
2022-12-01T15:12:03.703Z,15.30
2022-12-01T15:14:36.484Z,12.60
2022-12-01T15:17:06.299Z,13.65
2022-12-01T15:19:39.451Z,12.20
2022-12-01T15:22:15.352Z,13.00
2022-12-01T15:24:52.276Z,12.40
2022-12-01T15:27:29.992Z,12.32
2022-12-01T15:30:11.295Z,12.32
2022-12-01T15:32:43.200Z,13.63
2022-12-01T15:35:19.033Z,14.15
2022-12-01T15:37:50.886Z,12.82
2022-12-01T15:43:17.068Z,14.23
2022-12-01T15:45:50.707Z,14.60
2022-12-01T15:48:27.390Z,13.70
2022-12-01T15:51:10.862Z,15.05
2022-12-01T15:53:42.711Z,15.48
2022-12-01T15:56:12.652Z,13.18
2022-12-01T15:58:45.832Z,14.25
2022-12-01T16:01:15.669Z,12.30
2022-12-01T16:03:51.565Z,12.90
2022-12-01T16:06:22.894Z,15.02
2022-12-01T16:08:57.035Z,15.85
2022-12-01T16:11:34.203Z,15.95
2022-12-01T16:14:07.981Z,13.77
2022-12-01T16:19:07.344Z,16.67
2022-12-01T16:21:47.704Z,14.82
2022-12-01T16:24:17.687Z,13.48
2022-12-01T16:26:55.373Z,13.60
2022-12-01T16:29:45.116Z,14.48
2022-12-01T16:32:33.283Z,12.80
2022-12-01T16:35:09.357Z,12.10
2022-12-01T16:37:41.514Z,11.90
2022-12-01T16:40:13.699Z,15.32
2022-12-01T16:42:49.638Z,15.23
2022-12-01T16:45:20.262Z,13.00
2022-12-01T16:47:53.275Z,13.40
2022-12-01T16:50:25.412Z,11.85
2022-12-01T16:53:00.187Z,11.20
2022-12-01T16:55:35.778Z,12.07
2022-12-01T16:58:13.777Z,11.57
2022-12-01T17:00:55.895Z,12.00
2022-12-01T17:03:55.073Z,10.55
2022-12-01T17:06:40.948Z,15.70
2022-12-01T17:09:15.768Z,13.00
2022-12-01T17:11:49.590Z,18.50
2022-12-01T17:16:50.220Z,19.80
2022-12-01T17:19:22.313Z,16.38
2022-12-01T17:21:59.165Z,13.18
2022-12-01T17:24:30.056Z,13.25
2022-12-01T17:26:59.453Z,13.85
2022-12-01T17:29:31.298Z,13.98
2022-12-01T17:32:00.206Z,16.17
2022-12-01T17:34:34.162Z,14.57
2022-12-01T17:37:03.250Z,16.25
2022-12-01T17:39:34.144Z,14.80
2022-12-01T17:42:06.042Z,12.85
2022-12-01T17:44:37.653Z,13.80
2022-12-01T17:47:09.036Z,11.63
2022-12-01T17:49:39.896Z,10.95
2022-12-01T17:52:11.373Z,11.20
2022-12-01T17:54:43.340Z,10.43
2022-12-01T17:57:12.994Z,10.38
2022-12-01T17:59:41.783Z,11.55
2022-12-01T18:02:13.228Z,10.05
2022-12-01T18:04:42.157Z,10.00
2022-12-01T18:07:17.103Z,10.25
2022-12-01T18:09:52.356Z,9.82
2022-12-01T18:12:24.357Z,9.75
2022-12-01T18:14:58.976Z,10.18
2022-12-01T18:17:28.398Z,10.45
2022-12-01T18:19:59.048Z,11.77
2022-12-01T18:22:31.838Z,10.65
2022-12-01T18:25:04.645Z,10.85
2022-12-01T18:27:34.323Z,10.50
2022-12-01T18:30:03.557Z,9.95
2022-12-01T18:32:34.886Z,9.32
2022-12-01T18:35:03.538Z,9.63
2022-12-01T18:37:45.930Z,9.45
2022-12-01T18:40:29.762Z,9.50
2022-12-01T18:43:02.299Z,9.95
2022-12-01T18:45:34.192Z,9.98
2022-12-01T18:48:06.394Z,10.68
2022-12-01T18:50:36.491Z,10.63
2022-12-01T18:53:13.988Z,9.60
2022-12-01T18:56:05.901Z,10.23
2022-12-01T18:58:55.880Z,9.77
2022-12-01T19:01:32.063Z,10.73
2022-12-01T19:04:15.230Z,9.38
2022-12-01T19:06:46.652Z,11.15
2022-12-01T19:09:16.796Z,10.77
2022-12-01T19:11:50.461Z,11.65
2022-12-01T19:14:32.025Z,12.43
2022-12-01T19:17:08.703Z,11.88
2022-12-01T19:19:44.028Z,11.60
2022-12-01T19:22:53.198Z,10.50
2022-12-01T19:25:45.438Z,10.25
2022-12-01T19:28:21.027Z,11.05
2022-12-01T19:30:57.628Z,13.20
2022-12-01T19:33:29.981Z,10.50
2022-12-01T19:36:00.896Z,12.05
2022-12-01T19:38:36.593Z,9.98
2022-12-01T19:41:10.024Z,9.38
2022-12-01T19:43:53.270Z,11.52
2022-12-01T19:46:31.975Z,11.60
2022-12-01T19:49:08.866Z,9.60
2022-12-01T19:51:57.768Z,10.32
2022-12-01T19:54:30.467Z,8.98
2022-12-01T19:57:07.098Z,10.25
2022-12-01T19:59:39.208Z,10.93
2022-12-01T20:02:10.135Z,9.98
2022-12-01T20:04:41.094Z,10.23
2022-12-01T20:08:07.195Z,10.07
2022-12-01T20:10:49.598Z,11.82
2022-12-01T20:13:21.953Z,10.13
2022-12-01T20:16:03.065Z,11.30
2022-12-01T20:18:41.835Z,12.10
2022-12-01T20:21:12.668Z,20.20
2022-12-01T20:23:44.514Z,12.35
2022-12-01T20:26:19.155Z,12.93
2022-12-01T20:28:52.995Z,11.40
2022-12-01T20:33:55.862Z,9.80
2022-12-01T20:39:22.162Z,11.82
2022-12-01T20:42:01.628Z,11.25
2022-12-01T20:44:30.562Z,10.82
2022-12-01T20:47:00.887Z,10.57
2022-12-01T20:49:58.319Z,11.32
2022-12-01T20:52:44.514Z,10.43
2022-12-01T20:55:15.977Z,10.23
2022-12-01T20:57:45.893Z,10.40
2022-12-01T21:00:25.220Z,10.95
2022-12-01T21:03:08.526Z,10.55
2022-12-01T21:05:53.139Z,12.20
2022-12-01T21:08:26.500Z,11.95
2022-12-01T21:10:56.506Z,11.55
2022-12-01T21:13:49.371Z,11.73
2022-12-01T21:16:39.413Z,10.95
2022-12-01T21:22:15.670Z,10.60
2022-12-01T21:24:55.148Z,11.50
2022-12-01T21:27:31.975Z,11.73
2022-12-01T21:30:23.737Z,11.75
2022-12-01T21:32:54.534Z,11.25
2022-12-01T21:35:29.124Z,10.48
2022-12-01T21:38:06.321Z,10.38
2022-12-01T21:40:37.692Z,10.32
2022-12-01T21:43:17.152Z,9.65
2022-12-01T21:45:58.736Z,10.60
2022-12-01T21:48:37.805Z,10.30
2022-12-01T21:51:20.721Z,9.95
2022-12-01T21:53:51.642Z,11.18
2022-12-01T21:56:34.947Z,10.32
2022-12-01T21:59:09.127Z,9.50
2022-12-01T22:01:42.823Z,9.90
2022-12-01T22:04:15.295Z,10.93
2022-12-01T22:06:47.109Z,12.18
2022-12-01T22:09:21.941Z,10.32
2022-12-01T22:11:53.501Z,11.55
2022-12-01T22:14:26.242Z,11.60
2022-12-01T22:16:59.187Z,11.48
2022-12-01T22:19:32.226Z,11.32
2022-12-01T22:22:05.506Z,11.85
2022-12-01T22:24:42.379Z,12.70
2022-12-01T22:27:15.544Z,12.30
2022-12-01T22:29:45.612Z,12.15
2022-12-01T22:32:44.605Z,13.10
2022-12-01T22:35:30.160Z,11.32
2022-12-01T22:38:03.436Z,11.65
2022-12-01T22:40:36.681Z,12.50
2022-12-01T22:43:22.816Z,11.52
2022-12-01T22:45:56.048Z,10.85
2022-12-01T22:48:51.393Z,13.93
2022-12-01T22:51:39.189Z,11.82
2022-12-01T22:54:29.239Z,12.38
2022-12-01T22:57:16.400Z,11.70
2022-12-01T22:59:48.160Z,12.82
2022-12-01T23:02:21.461Z,12.65
2022-12-01T23:04:54.279Z,12.65
2022-12-01T23:07:31.348Z,12.10
2022-12-01T23:10:07.308Z,12.05
2022-12-01T23:12:41.547Z,12.70
2022-12-01T23:15:25.122Z,14.05
2022-12-01T23:18:01.236Z,18.63
2022-12-01T23:20:34.208Z,16.25
2022-12-01T23:23:04.230Z,13.07
2022-12-01T23:25:35.418Z,11.48
2022-12-01T23:28:06.103Z,12.40
2022-12-01T23:30:37.184Z,13.05
2022-12-01T23:33:21.325Z,12.55
2022-12-01T23:36:04.162Z,12.82
2022-12-01T23:38:35.076Z,12.52
2022-12-01T23:41:07.137Z,12.25
2022-12-01T23:43:40.217Z,12.57
2022-12-01T23:46:14.139Z,13.20
2022-12-01T23:48:47.118Z,13.05
2022-12-01T23:51:19.884Z,12.63
2022-12-01T23:53:49.683Z,14.27
2022-12-01T23:56:25.331Z,12.88
2022-12-01T23:58:58.555Z,12.90
